createdAt,value
2022-08-22T00:02:10.770Z,99046.06
2022-08-22T00:02:41.412Z,99070.88
2022-08-22T00:02:45.175Z,99086.44
2022-08-22T00:03:00.352Z,99072.28
2022-08-22T00:03:01.922Z,99074.06
2022-08-22T00:03:02.741Z,99084.56
2022-08-22T00:05:05.565Z,99052.28
2022-08-22T00:07:44.146Z,99046.38
2022-08-22T00:10:35.518Z,99049.16
2022-08-22T00:13:05.582Z,99050.94
2022-08-22T00:15:44.278Z,99044.97
2022-08-22T00:18:28.266Z,99047.59
2022-08-22T00:21:25.282Z,99039.75
2022-08-22T00:24:13.802Z,99042.44
2022-08-22T00:26:47.056Z,99034.09
2022-08-22T00:29:23.901Z,99040.69
2022-08-22T00:32:07.382Z,99036.47
2022-08-22T00:35:05.897Z,99039.81
2022-08-22T00:37:39.486Z,99038.16
2022-08-22T00:40:45.227Z,99039.16
2022-08-22T00:43:20.662Z,99040.16
2022-08-22T00:46:24.665Z,99035.81
2022-08-22T00:49:31.465Z,99034.19
2022-08-22T00:52:14.388Z,99046.41
2022-08-22T00:55:00.684Z,99047.38
2022-08-22T00:58:01.208Z,99050.81
2022-08-22T01:00:35.082Z,99061.31
2022-08-22T01:03:44.598Z,99058.69
2022-08-22T01:06:19.840Z,99059.59
2022-08-22T01:09:29.173Z,99057.88
2022-08-22T01:12:19.887Z,99050.97
2022-08-22T01:14:59.207Z,99059.69
2022-08-22T01:17:37.863Z,99063.22
2022-08-22T01:20:29.495Z,99068.44
2022-08-22T01:23:27.966Z,99064.22
2022-08-22T01:26:25.069Z,99056.50
2022-08-22T01:29:31.486Z,99064.41
2022-08-22T01:32:35.930Z,99061.88
2022-08-22T01:35:02.445Z,99060.28
2022-08-22T01:37:34.934Z,99062.94
2022-08-22T01:40:35.103Z,99067.28
2022-08-22T01:43:10.300Z,99074.28
2022-08-22T01:45:42.426Z,99068.28
2022-08-22T01:48:17.782Z,99068.38
2022-08-22T01:51:00.416Z,99065.84
2022-08-22T01:54:23.399Z,99072.88
2022-08-22T01:56:50.060Z,99056.66
2022-08-22T01:59:34.071Z,99061.81
2022-08-22T02:02:15.665Z,99067.75
2022-08-22T02:04:58.242Z,99061.72
2022-08-22T02:08:09.817Z,99069.53
2022-08-22T02:10:42.269Z,99079.16
2022-08-22T02:13:14.849Z,99070.50
2022-08-22T02:15:41.439Z,99073.16
2022-08-22T02:18:17.352Z,99075.72
2022-08-22T02:20:56.676Z,99074.84
2022-08-22T02:23:25.916Z,99077.44
2022-08-22T02:26:01.545Z,99077.56
2022-08-22T02:28:34.113Z,99078.44
2022-08-22T02:31:07.010Z,99080.34
2022-08-22T02:33:49.324Z,99087.34
2022-08-22T02:36:22.062Z,99076.97
2022-08-22T02:38:59.686Z,99083.94
2022-08-22T02:41:46.769Z,99085.63
2022-08-22T02:44:30.504Z,99083.16
2022-08-22T02:47:26.694Z,99086.63
2022-08-22T02:50:29.397Z,99092.66
2022-08-22T02:53:08.978Z,99096.13
2022-08-22T02:55:55.628Z,99089.22
2022-08-22T02:58:59.204Z,99097.94
2022-08-22T03:01:32.289Z,99101.53
2022-08-22T03:04:32.568Z,99104.19
2022-08-22T03:07:11.140Z,99103.31
2022-08-22T03:09:46.151Z,99102.50
2022-08-22T03:12:28.019Z,99088.00
2022-08-22T03:15:15.375Z,99100.84
2022-08-22T03:17:55.519Z,99106.03
2022-08-22T03:20:45.751Z,99100.81
2022-08-22T03:23:42.349Z,99104.25
2022-08-22T03:26:08.798Z,99110.31
2022-08-22T03:28:52.672Z,99114.69
2022-08-22T03:31:28.327Z,99105.19
2022-08-22T03:34:13.774Z,99119.91
2022-08-22T03:36:48.352Z,99104.47
2022-08-22T03:39:35.077Z,99114.84
2022-08-22T03:42:25.039Z,99110.78
2022-08-22T03:44:51.530Z,99115.88
2022-08-22T03:47:28.299Z,99115.91
2022-08-22T03:50:14.357Z,99126.34
2022-08-22T03:53:10.315Z,99133.31
2022-08-22T03:56:06.577Z,99136.81
2022-08-22T03:58:33.158Z,99132.56
2022-08-22T04:01:19.644Z,99136.81
2022-08-22T04:04:04.599Z,99135.91
2022-08-22T04:06:48.331Z,99138.44
2022-08-22T04:09:49.019Z,99147.94
2022-08-22T04:12:41.121Z,99137.50
2022-08-22T04:15:07.745Z,99146.16
2022-08-22T04:17:42.935Z,99147.88
2022-08-22T04:21:06.226Z,99149.53
2022-08-22T04:23:40.422Z,99153.88
2022-08-22T04:26:15.736Z,99152.09
2022-08-22T04:28:58.934Z,99154.66
2022-08-22T04:31:32.335Z,99158.88
2022-08-22T04:34:15.275Z,99151.88
2022-08-22T04:36:51.022Z,99155.22
2022-08-22T04:39:26.529Z,99152.56
2022-08-22T04:42:32.179Z,99149.88
2022-08-22T04:45:05.517Z,99150.63
2022-08-22T04:47:36.766Z,99149.63
2022-08-22T04:50:14.587Z,99142.56
2022-08-22T04:52:48.385Z,99139.09
2022-08-22T04:55:33.045Z,99146.59
2022-08-22T04:58:10.758Z,99149.88
2022-08-22T05:00:57.043Z,99150.53
2022-08-22T05:03:26.960Z,99149.47
2022-08-22T05:05:55.646Z,99138.25
2022-08-22T05:08:25.837Z,99149.09
2022-08-22T05:10:54.154Z,99148.00
2022-08-22T05:13:39.146Z,99155.69
2022-08-22T05:16:14.770Z,99160.69
2022-08-22T05:18:53.479Z,99153.59
2022-08-22T05:21:24.496Z,99159.59
2022-08-22T05:24:05.772Z,99155.13
2022-08-22T05:26:43.781Z,99157.50
2022-08-22T05:29:14.608Z,99155.59
2022-08-22T05:31:49.959Z,99162.31
2022-08-22T05:34:28.265Z,99152.78
2022-08-22T05:37:17.837Z,99166.25
2022-08-22T05:39:49.111Z,99166.09
2022-08-22T05:42:26.564Z,99157.03
2022-08-22T05:44:54.365Z,99156.94
2022-08-22T05:47:33.036Z,99155.69
2022-08-22T05:50:13.621Z,99164.94
2022-08-22T05:53:03.009Z,99161.97
2022-08-22T05:55:53.107Z,99149.84
2022-08-22T05:58:40.079Z,99142.59
2022-08-22T06:01:29.169Z,99159.41
2022-08-22T06:04:14.269Z,99143.75
2022-08-22T06:06:53.098Z,99160.69
2022-08-22T06:09:24.387Z,99158.63
2022-08-22T06:12:00.856Z,99161.81
2022-08-22T06:14:42.231Z,99165.03
2022-08-22T06:17:21.204Z,99163.88
2022-08-22T06:19:51.246Z,99165.38
2022-08-22T06:22:23.277Z,99164.19
2022-08-22T06:24:51.957Z,99170.84
2022-08-22T06:27:23.909Z,99171.44
2022-08-22T06:29:59.041Z,99154.72
2022-08-22T06:32:59.082Z,99173.47
2022-08-22T06:35:59.623Z,99162.78
2022-08-22T06:38:34.769Z,99168.44
2022-08-22T06:41:07.122Z,99171.63
2022-08-22T06:43:39.839Z,99180.91
2022-08-22T06:46:08.423Z,99175.41
2022-08-22T06:48:36.922Z,99177.72
2022-08-22T06:51:08.274Z,99165.44
2022-08-22T06:53:39.580Z,99180.53
2022-08-22T06:56:18.472Z,99169.03
2022-08-22T06:58:47.765Z,99173.16
2022-08-22T07:01:19.295Z,99172.88
2022-08-22T07:03:57.444Z,99168.66
2022-08-22T07:06:38.311Z,99171.66
2022-08-22T07:09:07.071Z,99173.22
2022-08-22T07:11:39.608Z,99179.78
2022-08-22T07:14:12.517Z,99160.69
2022-08-22T07:16:44.982Z,99180.09
2022-08-22T07:19:30.259Z,99174.47
2022-08-22T07:21:58.721Z,99170.69
2022-08-22T07:24:32.306Z,99166.25
2022-08-22T07:27:14.097Z,99166.63
2022-08-22T07:30:14.689Z,99164.56
2022-08-22T07:32:54.640Z,99169.53
2022-08-22T07:35:30.391Z,99165.00
2022-08-22T07:38:09.797Z,99161.16
2022-08-22T07:40:49.638Z,99157.31
2022-08-22T07:43:41.554Z,99160.47
2022-08-22T07:46:39.673Z,99155.72
2022-08-22T07:49:16.688Z,99154.66
2022-08-22T07:51:47.809Z,99143.22
2022-08-22T07:54:20.578Z,99152.38
2022-08-22T07:57:03.655Z,99136.63
2022-08-22T07:59:33.285Z,99151.75
2022-08-22T08:02:04.673Z,99148.06
2022-08-22T08:04:39.541Z,99151.16
2022-08-22T08:07:10.063Z,99149.84
2022-08-22T08:09:44.513Z,99151.28
2022-08-22T08:12:12.772Z,99137.41
2022-08-22T08:14:45.995Z,99137.91
2022-08-22T08:17:20.840Z,99139.22
2022-08-22T08:19:48.427Z,99148.25
2022-08-22T08:22:19.857Z,99148.69
2022-08-22T08:24:48.226Z,99134.81
2022-08-22T08:27:39.320Z,99154.25
2022-08-22T08:30:15.970Z,99142.97
2022-08-22T08:32:47.588Z,99151.16
2022-08-22T08:36:01.911Z,99151.66
2022-08-22T08:38:36.953Z,99149.56
2022-08-22T08:41:24.446Z,99150.03
2022-08-22T08:44:17.013Z,99143.53
2022-08-22T08:46:57.473Z,99140.59
2022-08-22T08:49:52.047Z,99136.84
2022-08-22T08:52:29.862Z,99140.06
2022-08-22T08:55:26.006Z,99139.56
2022-08-22T08:58:10.979Z,99143.72
2022-08-22T09:00:52.728Z,99142.63
2022-08-22T09:03:42.303Z,99140.41
2022-08-22T09:06:13.466Z,99135.75
2022-08-22T09:09:01.646Z,99131.09
2022-08-22T09:11:57.543Z,99135.38
2022-08-22T09:14:46.906Z,99136.78
2022-08-22T09:17:43.961Z,99133.72
2022-08-22T09:20:22.902Z,99132.34
2022-08-22T09:23:12.946Z,99126.66
2022-08-22T09:25:51.137Z,99130.63
2022-08-22T09:28:21.081Z,99124.84
2022-08-22T09:31:32.702Z,99118.94
2022-08-22T09:34:30.581Z,99123.72
2022-08-22T09:37:07.832Z,99121.47
2022-08-22T09:39:50.983Z,99117.53
2022-08-22T09:42:31.331Z,99122.13
2022-08-22T09:45:06.922Z,99113.78
2022-08-22T09:47:43.552Z,99100.59
2022-08-22T09:50:19.820Z,99123.56
2022-08-22T09:53:10.683Z,99116.16
2022-08-22T09:55:52.773Z,99109.84
2022-08-22T09:58:44.982Z,99113.03
2022-08-22T10:01:39.041Z,99113.06
2022-08-22T10:04:14.543Z,99114.38
2022-08-22T10:07:12.437Z,99119.19
2022-08-22T10:09:54.941Z,99116.25
2022-08-22T10:12:56.494Z,99115.84
2022-08-22T10:15:45.860Z,99110.91
2022-08-22T10:18:54.684Z,99116.56
2022-08-22T10:21:38.491Z,99125.31
2022-08-22T10:24:25.743Z,99121.22
2022-08-22T10:27:01.823Z,99120.47
2022-08-22T10:29:46.544Z,99122.09
2022-08-22T10:32:40.489Z,99120.31
2022-08-22T10:35:19.143Z,99108.31
2022-08-22T10:37:58.140Z,99119.22
2022-08-22T10:40:57.034Z,99117.53
2022-08-22T10:43:30.036Z,99130.88
2022-08-22T10:46:19.824Z,99123.03
2022-08-22T10:48:51.904Z,99117.44
2022-08-22T10:51:46.419Z,99130.59
2022-08-22T10:54:28.309Z,99138.06
2022-08-22T10:57:31.082Z,99138.50
2022-08-22T11:00:37.118Z,99137.25
2022-08-22T11:03:47.088Z,99133.19
2022-08-22T11:06:19.223Z,99129.78
2022-08-22T11:09:07.426Z,99136.13
2022-08-22T11:11:40.843Z,99133.69
2022-08-22T11:14:19.564Z,99127.84
2022-08-22T11:16:55.413Z,99136.91
2022-08-22T11:19:38.820Z,99133.50
2022-08-22T11:22:14.889Z,99139.81
2022-08-22T11:25:15.052Z,99136.25
2022-08-22T11:28:11.675Z,99133.56
2022-08-22T11:31:22.810Z,99125.06
2022-08-22T11:33:59.597Z,99132.34
2022-08-22T11:36:39.580Z,99132.81
2022-08-22T11:39:38.916Z,99129.81
2022-08-22T11:42:11.954Z,99125.59
2022-08-22T11:44:50.267Z,99140.31
2022-08-22T11:47:26.537Z,99124.69
2022-08-22T11:50:19.830Z,99133.81
2022-08-22T11:53:07.632Z,99139.00
2022-08-22T11:55:52.965Z,99138.03
2022-08-22T11:58:33.880Z,99129.13
2022-08-22T12:01:41.746Z,99122.47
2022-08-22T12:04:31.352Z,99122.09
2022-08-22T12:07:28.569Z,99128.00
2022-08-22T12:10:14.239Z,99113.47
2022-08-22T12:13:07.297Z,99126.97
2022-08-22T12:15:53.939Z,99134.69
2022-08-22T12:18:35.498Z,99128.31
2022-08-22T12:21:14.170Z,99124.38
2022-08-22T12:23:55.463Z,99129.47
2022-08-22T12:26:57.691Z,99132.56
2022-08-22T12:29:33.961Z,99129.50
2022-08-22T12:32:44.065Z,99120.34
2022-08-22T12:35:29.823Z,99126.75
2022-08-22T12:38:29.122Z,99126.38
2022-08-22T12:41:27.979Z,99129.50
2022-08-22T12:44:16.476Z,99132.34
2022-08-22T12:47:26.692Z,99129.69
2022-08-22T12:50:14.437Z,99135.16
2022-08-22T12:53:00.471Z,99127.84
2022-08-22T12:55:39.369Z,99132.31
2022-08-22T12:58:15.307Z,99133.88
2022-08-22T13:00:47.595Z,99126.69
2022-08-22T13:03:28.226Z,99125.38
2022-08-22T13:06:00.024Z,99128.28
2022-08-22T13:08:38.640Z,99123.31
2022-08-22T13:11:22.576Z,99122.63
2022-08-22T13:13:56.580Z,99126.22
2022-08-22T13:16:26.164Z,99126.19
2022-08-22T13:19:01.207Z,99127.81
2022-08-22T13:21:43.381Z,99132.72
2022-08-22T13:24:16.676Z,99132.31
2022-08-22T13:26:50.706Z,99128.41
2022-08-22T13:29:26.126Z,99121.88
2022-08-22T13:32:01.964Z,99126.44
2022-08-22T13:34:46.085Z,99130.84
2022-08-22T13:37:24.652Z,99126.09
2022-08-22T13:39:59.735Z,99129.25
2022-08-22T13:42:31.173Z,99131.19
2022-08-22T13:45:03.110Z,99136.81
2022-08-22T13:47:34.813Z,99136.72
2022-08-22T13:50:19.124Z,99133.06
2022-08-22T13:53:07.017Z,99135.22
2022-08-22T13:56:01.431Z,99133.31
2022-08-22T13:58:42.068Z,99137.06
2022-08-22T14:01:18.503Z,99140.28
2022-08-22T14:03:55.376Z,99140.34
2022-08-22T14:06:37.316Z,99130.31
2022-08-22T14:09:42.693Z,99138.69
2022-08-22T14:12:17.051Z,99141.31
2022-08-22T14:14:49.297Z,99132.31
2022-08-22T14:17:23.168Z,99138.81
2022-08-22T14:20:11.219Z,99137.66
2022-08-22T14:22:41.417Z,99143.78
2022-08-22T14:25:18.469Z,99138.72
2022-08-22T14:27:52.479Z,99134.75
2022-08-22T14:30:24.434Z,99138.34
2022-08-22T14:33:13.674Z,99141.69
2022-08-22T14:35:53.809Z,99140.84
2022-08-22T14:38:38.276Z,99147.66
2022-08-22T14:41:05.409Z,99141.41
2022-08-22T14:43:32.003Z,99143.13
2022-08-22T14:46:12.641Z,99154.88
2022-08-22T14:49:28.659Z,99150.56
2022-08-22T14:52:10.600Z,99150.66
2022-08-22T14:54:46.298Z,99153.91
2022-08-22T14:57:19.990Z,99152.00
2022-08-22T14:59:51.590Z,99155.69
2022-08-22T15:02:44.453Z,99157.59
2022-08-22T15:05:21.394Z,99160.38
2022-08-22T15:07:59.311Z,99155.88
2022-08-22T15:10:32.926Z,99146.69
2022-08-22T15:13:07.709Z,99148.06
2022-08-22T15:15:49.338Z,99149.09
2022-08-22T15:18:35.844Z,99151.34
2022-08-22T15:21:18.202Z,99149.25
2022-08-22T15:23:47.051Z,99140.91
2022-08-22T15:26:50.077Z,99139.69
2022-08-22T15:29:24.579Z,99144.31
2022-08-22T15:32:02.589Z,99145.56
2022-08-22T15:34:34.332Z,99150.66
2022-08-22T15:37:17.594Z,99143.31
2022-08-22T15:40:02.859Z,99155.72
2022-08-22T15:42:48.853Z,99154.69
2022-08-22T15:45:38.386Z,99160.31
2022-08-22T15:48:24.350Z,99164.53
2022-08-22T15:51:10.457Z,99159.81
2022-08-22T15:53:43.311Z,99167.16
2022-08-22T15:56:12.976Z,99171.00
2022-08-22T15:58:48.559Z,99163.66
2022-08-22T16:01:25.809Z,99173.03
2022-08-22T16:04:12.416Z,99166.69
2022-08-22T16:06:50.108Z,99163.75
2022-08-22T16:09:44.952Z,99165.03
2022-08-22T16:12:34.817Z,99169.34
2022-08-22T16:15:05.946Z,99171.41
2022-08-22T16:17:42.741Z,99176.38
2022-08-22T16:20:09.943Z,99181.34
2022-08-22T16:22:57.826Z,99179.09
2022-08-22T16:25:46.327Z,99180.28
2022-08-22T16:28:56.736Z,99179.06
2022-08-22T16:31:23.936Z,99185.47
2022-08-22T16:33:51.218Z,99184.56
2022-08-22T16:36:17.879Z,99189.59
2022-08-22T16:38:49.374Z,99185.66
2022-08-22T16:41:35.664Z,99190.91
2022-08-22T16:44:30.179Z,99203.06
2022-08-22T16:47:17.808Z,99186.66
2022-08-22T16:49:50.330Z,99205.09
2022-08-22T16:52:26.029Z,99203.88
2022-08-22T16:55:30.955Z,99204.28
2022-08-22T16:58:44.682Z,99197.00
2022-08-22T17:01:23.651Z,99206.44
2022-08-22T17:04:11.832Z,99205.94
2022-08-22T17:07:16.630Z,99207.16
2022-08-22T17:10:18.525Z,99213.66
2022-08-22T17:13:29.892Z,99221.19
2022-08-22T17:16:25.030Z,99225.09
2022-08-22T17:18:57.543Z,99224.38
2022-08-22T17:21:28.391Z,99228.03
2022-08-22T17:24:32.261Z,99224.59
2022-08-22T17:27:16.066Z,99241.34
2022-08-22T17:30:01.801Z,99239.63
2022-08-22T17:32:59.043Z,99236.19
2022-08-22T17:35:55.138Z,99241.03
2022-08-22T17:38:33.937Z,99238.88
2022-08-22T17:41:03.865Z,99242.53
2022-08-22T17:43:33.502Z,99234.94
2022-08-22T17:46:44.938Z,99239.09
2022-08-22T17:49:11.470Z,99240.38
2022-08-22T17:52:17.433Z,99249.81
2022-08-22T17:54:53.480Z,99245.59
2022-08-22T17:57:32.010Z,99248.91
2022-08-22T18:00:17.421Z,99253.78
2022-08-22T18:03:00.634Z,99250.75
2022-08-22T18:05:31.764Z,99258.19
2022-08-22T18:08:08.365Z,99259.34
2022-08-22T18:10:46.633Z,99257.94
2022-08-22T18:13:33.653Z,99249.44
2022-08-22T18:16:32.741Z,99246.34
2022-08-22T18:19:21.502Z,99254.38
2022-08-22T18:22:19.419Z,99256.28
2022-08-22T18:24:58.221Z,99253.72
2022-08-22T18:27:30.033Z,99253.88
2022-08-22T18:30:13.782Z,99258.31
2022-08-22T18:32:59.409Z,99253.22
2022-08-22T18:35:49.835Z,99249.03
2022-08-22T18:38:31.383Z,99247.66
2022-08-22T18:41:16.246Z,99252.34
2022-08-22T18:43:50.694Z,99243.13
2022-08-22T18:46:38.403Z,99245.19
2022-08-22T18:49:32.080Z,99245.53
2022-08-22T18:52:31.995Z,99251.97
2022-08-22T18:55:18.108Z,99251.34
2022-08-22T18:58:06.840Z,99255.19
2022-08-22T19:00:42.595Z,99251.09
2022-08-22T19:03:36.429Z,99242.63
2022-08-22T19:06:45.586Z,99238.53
2022-08-22T19:09:52.552Z,99240.66
2022-08-22T19:12:26.374Z,99246.97
2022-08-22T19:15:07.891Z,99238.50
2022-08-22T19:18:09.233Z,99237.91
2022-08-22T19:21:23.129Z,99235.66
2022-08-22T19:23:55.838Z,99230.59
2022-08-22T19:26:40.364Z,99233.38
2022-08-22T19:29:25.710Z,99229.03
2022-08-22T19:31:58.394Z,99224.84
2022-08-22T19:35:09.975Z,99224.84
2022-08-22T19:38:07.430Z,99232.06
2022-08-22T19:40:53.628Z,99215.72
2022-08-22T19:43:36.207Z,99226.13
2022-08-22T19:46:16.157Z,99232.06
2022-08-22T19:48:57.856Z,99233.88
2022-08-22T19:51:32.692Z,99235.91
2022-08-22T19:54:17.361Z,99237.50
2022-08-22T19:57:09.928Z,99242.75
2022-08-22T20:00:02.435Z,99229.00
2022-08-22T20:02:56.635Z,99232.44
2022-08-22T20:06:04.707Z,99235.09
2022-08-22T20:08:43.522Z,99240.22
2022-08-22T20:11:49.588Z,99242.75
2022-08-22T20:14:38.344Z,99248.91
2022-08-22T20:17:15.302Z,99242.09
2022-08-22T20:25:58.967Z,99243.16
2022-08-22T20:29:10.122Z,99244.72
2022-08-22T20:31:55.527Z,99205.69
2022-08-22T20:34:33.990Z,99239.03
2022-08-22T20:37:23.705Z,99241.50
2022-08-22T20:40:00.052Z,99236.78
2022-08-22T20:42:48.830Z,99244.59
2022-08-22T20:45:19.322Z,99231.22
2022-08-22T20:47:51.270Z,99245.88
2022-08-22T20:50:34.834Z,99245.88
2022-08-22T20:53:11.658Z,99254.38
2022-08-22T20:55:38.365Z,99256.22
2022-08-22T20:58:23.039Z,99251.13
2022-08-22T21:00:57.136Z,99251.22
2022-08-22T21:03:36.419Z,99256.47
2022-08-22T21:06:24.010Z,99249.66
2022-08-22T21:09:30.322Z,99228.50
2022-08-22T21:12:04.321Z,99248.16
2022-08-22T21:14:47.244Z,99238.94
2022-08-22T21:17:29.227Z,99253.56
2022-08-22T21:20:27.151Z,99243.34
2022-08-22T21:23:05.193Z,99244.38
2022-08-22T21:26:06.584Z,99241.94
2022-08-22T21:29:02.230Z,99247.78
2022-08-22T21:31:46.934Z,99243.72
2022-08-22T21:34:25.677Z,99218.13
2022-08-22T21:36:58.341Z,99243.84
2022-08-22T21:39:37.349Z,99214.81
2022-08-22T21:42:06.376Z,99239.56
2022-08-22T21:45:00.389Z,99224.25
2022-08-22T21:47:31.196Z,99230.19
2022-08-22T21:50:13.487Z,99230.28
2022-08-22T21:53:02.182Z,99229.47
2022-08-22T21:55:39.383Z,99228.72
2022-08-22T21:58:09.013Z,99230.53
2022-08-22T22:00:54.500Z,99230.66
2022-08-22T22:03:35.740Z,99228.19
2022-08-22T22:06:05.600Z,99216.13
2022-08-22T22:08:32.880Z,99215.50
2022-08-22T22:11:04.713Z,99215.59
2022-08-22T22:13:34.799Z,99218.22
2022-08-22T22:16:08.902Z,99210.00
2022-08-22T22:18:40.761Z,99202.38
2022-08-22T22:21:10.653Z,99205.91
2022-08-22T22:24:00.396Z,99224.09
2022-08-22T22:29:29.801Z,99224.38
2022-08-22T22:32:06.375Z,99201.50
2022-08-22T22:34:49.811Z,99198.09
2022-08-22T22:37:16.699Z,99225.47
2022-08-22T22:39:43.501Z,99210.00
2022-08-22T22:42:10.122Z,99222.06
2022-08-22T22:44:36.899Z,99224.66
2022-08-22T22:47:04.103Z,99222.06
2022-08-22T22:49:32.100Z,99230.00
2022-08-22T22:52:00.149Z,99224.88
2022-08-22T22:54:27.193Z,99224.00
2022-08-22T22:56:54.219Z,99224.03
2022-08-22T22:59:26.770Z,99218.06
2022-08-22T23:02:09.016Z,99215.47
2022-08-22T23:04:39.320Z,99210.34
2022-08-22T23:07:07.415Z,99206.25
2022-08-22T23:09:38.614Z,99221.00
2022-08-22T23:12:12.355Z,99214.06
2022-08-22T23:14:38.949Z,99210.66
2022-08-22T23:17:05.915Z,99210.81
2022-08-22T23:19:32.979Z,99212.59
2022-08-22T23:22:01.031Z,99211.84
2022-08-22T23:24:29.445Z,99221.44
2022-08-22T23:26:56.671Z,99213.59
2022-08-22T23:29:23.298Z,99217.97
2022-08-22T23:31:51.278Z,99218.03
2022-08-22T23:34:24.274Z,99210.19
2022-08-22T23:36:53.675Z,99201.75
2022-08-22T23:39:22.123Z,99212.84
2022-08-22T23:41:49.166Z,99214.63
2022-08-22T23:44:18.628Z,99212.00
2022-08-22T23:46:46.243Z,99212.94
2022-08-22T23:49:13.542Z,99216.44
2022-08-22T23:51:41.821Z,99218.25
2022-08-22T23:54:12.094Z,99213.13
2022-08-22T23:56:50.952Z,99206.31
2022-08-22T23:59:20.890Z,99210.69
